Time;durP1;ratioP1;P1;durP2;ratioP2;P2;SDS_P1;SDS_P2;PMS_P1;PMS_P2;Temp;Humidity;BMP_temperature;BMP_pressure;BME280_temperature;BME280_humidity;BME280_pressure;Samples;Min_cycle;Max_cycle;Signal;HPM_P1;HPM_P2
2023/02/02 00:00:55;;;;;;;0.30;0.20;;;;;;;8.56;93.06;100790.66;5015012;28;20452;-57
2023/02/02 00:03:22;;;;;;;0.70;0.70;;;;;;;8.53;92.68;100785.41;5014971;28;20496;-57
2023/02/02 00:05:51;;;;;;;0.40;0.30;;;;;;;8.64;93.03;100780.00;5014959;28;20448;-57
2023/02/02 00:08:19;;;;;;;0.40;0.40;;;;;;;8.54;92.66;100781.00;5014979;28;20472;-58
2023/02/02 00:10:46;;;;;;;9.30;1.10;;;;;;;8.55;93.19;100778.31;5008611;28;20498;-57
2023/02/02 00:13:13;;;;;;;2.57;1.10;;;;;;;8.51;93.33;100778.38;5001371;28;20480;-58
2023/02/02 00:15:39;;;;;;;1.90;0.83;;;;;;;8.41;94.01;100769.66;5015280;28;20483;-57
2023/02/02 00:18:06;;;;;;;0.53;0.40;;;;;;;8.46;94.58;100766.94;5014875;28;20449;-57
2023/02/02 00:20:36;;;;;;;1.07;0.67;;;;;;;8.51;93.97;100760.72;5014682;28;20448;-57
2023/02/02 00:23:03;;;;;;;19.20;2.10;;;;;;;8.60;94.26;100763.22;5014851;28;20496;-57
2023/02/02 00:25:30;;;;;;;0.40;0.40;;;;;;;8.61;93.71;100767.63;5013760;28;20456;-57
2023/02/02 00:27:56;;;;;;;0.30;0.20;;;;;;;8.51;94.14;100773.09;5014544;28;20448;-58
2023/02/02 00:30:23;;;;;;;0.60;0.40;;;;;;;8.56;94.23;100768.59;5014680;28;20922;-57
2023/02/02 00:32:51;;;;;;;1.50;0.33;;;;;;;8.58;94.36;100766.81;5014602;28;20507;-58
2023/02/02 00:35:18;;;;;;;1.07;0.93;;;;;;;8.59;94.29;100769.44;5014233;28;20961;-57
2023/02/02 00:37:44;;;;;;;1.43;1.43;;;;;;;8.64;94.41;100773.81;5014187;28;20451;-57
2023/02/02 00:40:11;;;;;;;13.87;0.77;;;;;;;8.72;94.01;100780.75;5001106;28;21007;-58
2023/02/02 00:42:37;;;;;;;0.70;0.70;;;;;;;8.68;93.92;100780.81;5006045;28;20473;-57
2023/02/02 00:45:16;;;;;;;16.70;0.70;;;;;;;8.68;93.95;100786.13;5009276;28;20523;-58
2023/02/02 00:47:48;;;;;;;1.00;1.00;;;;;;;8.66;94.44;100790.56;5013999;28;20445;-57
2023/02/02 00:50:19;;;;;;;0.30;0.20;;;;;;;8.54;95.22;100796.88;5000746;28;20532;-56
2023/02/02 00:52:47;;;;;;;0.50;0.40;;;;;;;8.58;95.85;100790.66;5013897;28;20465;-57
2023/02/02 00:55:14;;;;;;;0.83;0.83;;;;;;;8.55;95.93;100786.28;5001046;28;20823;-57
2023/02/02 00:57:43;;;;;;;0.30;0.20;;;;;;;8.48;95.52;100789.00;5012958;28;20453;-58
2023/02/02 01:00:15;;;;;;;0.50;0.50;;;;;;;8.63;95.20;100786.16;5013940;28;20453;-58
2023/02/02 01:02:42;;;;;;;0.40;0.30;;;;;;;8.65;94.38;100796.75;5013738;28;20465;-56
2023/02/02 01:05:11;;;;;;;0.67;0.50;;;;;;;8.58;95.17;100782.69;4994276;28;20457;-57
2023/02/02 01:07:38;;;;;;;10.77;1.17;;;;;;;8.61;94.62;100793.25;5007382;28;20460;-57
2023/02/02 01:10:07;;;;;;;7.10;0.50;;;;;;;8.55;95.65;100785.41;5007091;28;20505;-57
2023/02/02 01:12:34;;;;;;;1.80;0.47;;;;;;;8.48;96.41;100792.53;5000090;28;20860;-57
2023/02/02 01:15:01;;;;;;;0.80;0.73;;;;;;;8.70;95.80;100787.84;5013611;28;20459;-57
2023/02/02 01:17:28;;;;;;;0.47;0.30;;;;;;;8.65;96.46;100775.56;5013346;28;20479;-56
2023/02/02 01:19:54;;;;;;;1.07;0.53;;;;;;;8.71;95.29;100791.38;5013207;28;20516;-57
2023/02/02 01:22:21;;;;;;;0.30;0.20;;;;;;;8.70;95.33;100789.63;5013319;28;20563;-56
2023/02/02 01:24:47;;;;;;;0.50;0.40;;;;;;;8.70;95.78;100801.09;5013518;28;20492;-57
2023/02/02 01:27:14;;;;;;;0.87;0.83;;;;;;;8.77;95.92;100809.84;5013361;28;20544;-57
2023/02/02 01:29:40;;;;;;;5.50;0.50;;;;;;;8.58;95.11;100807.41;5013489;28;20575;-57
2023/02/02 01:32:07;;;;;;;4.07;2.10;;;;;;;8.56;95.97;100805.69;5013261;28;20989;-57
2023/02/02 01:34:33;;;;;;;1.87;0.83;;;;;;;8.62;95.76;100800.31;5013057;28;20448;-56
2023/02/02 01:37:00;;;;;;;2.20;0.50;;;;;;;8.58;95.48;100807.41;5012435;28;20462;-57
2023/02/02 01:39:26;;;;;;;0.67;0.50;;;;;;;8.62;96.48;100805.59;5005145;28;20973;-57
2023/02/02 01:41:53;;;;;;;1.03;0.50;;;;;;;8.53;96.38;100800.44;5006473;28;20476;-57
2023/02/02 01:44:57;;;;;;;15.47;2.27;;;;;;;8.60;96.36;100797.69;5001846;28;20496;-57
2023/02/02 01:47:33;;;;;;;0.50;0.43;;;;;;;8.65;96.00;100799.41;5000788;28;20452;-57
2023/02/02 01:49:59;;;;;;;2.93;0.33;;;;;;;8.62;95.88;100797.66;4999474;28;20836;-57
2023/02/02 01:52:29;;;;;;;5.93;0.30;;;;;;;8.60;95.88;100805.63;5012744;28;20472;-56
2023/02/02 01:54:59;;;;;;;1.47;0.93;;;;;;;8.65;96.13;100810.00;4999762;28;20884;-57
2023/02/02 01:57:39;;;;;;;2.97;0.40;;;;;;;8.70;96.15;100800.22;5012760;28;20460;-56
2023/02/02 02:00:09;;;;;;;0.30;0.20;;;;;;;8.59;96.62;100805.66;5012957;28;20888;-57
2023/02/02 02:02:38;;;;;;;0.30;0.30;;;;;;;8.79;96.24;100800.13;5013001;28;20555;-57
2023/02/02 02:05:07;;;;;;;0.60;0.60;;;;;;;8.77;96.11;100809.84;5012617;28;20547;-57
2023/02/02 02:07:33;;;;;;;0.60;0.60;;;;;;;8.77;95.65;100810.75;5012571;28;20934;-57
2023/02/02 02:10:00;;;;;;;1.43;0.20;;;;;;;8.73;96.46;100802.81;5005415;28;20449;-57
2023/02/02 02:12:26;;;;;;;25.77;0.47;;;;;;;8.85;95.29;100811.50;5000153;28;20922;-57
2023/02/02 02:17:41;;;;;;;1.07;0.40;;;;;;;8.63;96.11;100810.00;5012411;28;20551;-57
2023/02/02 02:26:55;;;;;;;0.60;0.40;;;;;;;8.63;96.48;100811.78;4992752;28;20821;-56
2023/02/02 02:29:40;;;;;;;0.87;0.33;;;;;;;8.57;96.43;100810.97;5011606;28;20524;-57
2023/02/02 02:32:33;;;;;;;0.30;0.20;;;;;;;8.79;96.17;100816.03;5012257;28;20990;-57
2023/02/02 02:35:12;;;;;;;0.30;0.20;;;;;;;8.70;95.96;100811.69;5005149;28;20519;-57
2023/02/02 02:37:57;;;;;;;0.60;0.60;;;;;;;8.74;96.26;100815.19;4993099;28;20477;-57
2023/02/02 02:40:53;;;;;;;0.40;0.30;;;;;;;8.78;96.35;100822.22;4995790;28;20448;-56
2023/02/02 02:43:28;;;;;;;0.37;0.30;;;;;;;8.78;96.26;100812.50;4992816;28;20505;-57
2023/02/02 02:45:55;;;;;;;0.30;0.30;;;;;;;8.90;95.71;100811.44;5012621;28;20452;-57
2023/02/02 02:48:22;;;;;;;3.70;1.17;;;;;;;8.93;95.01;100814.06;5011324;28;20445;-57
2023/02/02 02:50:48;;;;;;;3.50;0.57;;;;;;;8.81;95.51;100823.03;5005271;28;20454;-57
2023/02/02 02:53:18;;;;;;;0.30;0.20;;;;;;;8.78;95.66;100819.56;5013868;28;20530;-56
2023/02/02 02:55:58;;;;;;;3.17;0.57;;;;;;;8.80;95.46;100808.03;5005739;28;20828;-57
2023/02/02 02:58:31;;;;;;;0.50;0.50;;;;;;;8.70;95.98;100818.78;5015873;28;20852;-57
2023/02/02 03:01:06;;;;;;;0.50;0.40;;;;;;;8.80;95.53;100820.41;5016243;28;20452;-57
2023/02/02 03:03:47;;;;;;;0.30;0.20;;;;;;;8.73;95.96;100821.38;5015874;28;20495;-57
2023/02/02 03:06:22;;;;;;;0.40;0.23;;;;;;;8.71;96.22;100829.34;5016421;28;20490;-57
2023/02/02 03:09:00;;;;;;;2.43;0.57;;;;;;;8.64;96.75;100826.81;5013118;28;20966;-57
2023/02/02 03:11:26;;;;;;;0.50;0.40;;;;;;;8.57;97.85;100818.91;5009567;28;20456;-56
2023/02/02 03:13:54;;;;;;;0.60;0.47;;;;;;;8.83;97.54;100828.31;5007376;28;20479;-56
2023/02/02 03:16:20;;;;;;;0.93;0.30;;;;;;;8.79;97.77;100829.28;5015674;28;20452;-56
2023/02/02 03:18:47;;;;;;;0.30;0.20;;;;;;;8.72;98.57;100816.97;5015645;28;20494;-57
2023/02/02 03:21:14;;;;;;;0.30;0.20;;;;;;;8.55;98.66;100812.75;5015716;28;20448;-56
2023/02/02 03:23:40;;;;;;;0.30;0.30;;;;;;;8.76;98.40;100810.72;5015593;28;20627;-57
2023/02/02 03:26:07;;;;;;;0.47;0.40;;;;;;;8.56;98.54;100814.50;5015506;28;20463;-57
2023/02/02 03:28:34;;;;;;;0.97;0.50;;;;;;;8.75;98.43;100807.19;5015525;28;20456;-58
2023/02/02 03:31:01;;;;;;;1.67;0.40;;;;;;;8.71;98.29;100812.56;5015393;28;20452;-57
2023/02/02 03:33:29;;;;;;;8.40;0.20;;;;;;;8.59;98.83;100806.53;5015454;28;20985;-56
2023/02/02 03:35:55;;;;;;;0.40;0.30;;;;;;;8.92;98.25;100808.78;5015305;28;20949;-58
2023/02/02 03:38:22;;;;;;;0.40;0.27;;;;;;;8.52;98.85;100810.16;5015433;28;20463;-57
2023/02/02 03:40:50;;;;;;;4.90;0.83;;;;;;;8.74;99.31;100810.75;5015084;28;20448;-57
2023/02/02 03:43:23;;;;;;;0.53;0.47;;;;;;;8.67;98.96;100810.88;5002994;28;20849;-57
2023/02/02 03:45:57;;;;;;;0.87;0.40;;;;;;;8.82;98.69;100805.38;4995572;28;20453;-57
2023/02/02 03:48:24;;;;;;;0.63;0.63;;;;;;;8.74;99.00;100817.81;5008901;28;20487;-57
2023/02/02 03:50:51;;;;;;;7.83;1.17;;;;;;;8.61;99.01;100815.31;5004365;28;20484;-57
2023/02/02 03:53:18;;;;;;;4.93;0.50;;;;;;;8.56;99.27;100817.16;5012652;28;20488;-57
2023/02/02 03:55:45;;;;;;;1.57;1.47;;;;;;;8.45;99.62;100821.72;5004777;28;20469;-57
2023/02/02 03:58:11;;;;;;;3.50;0.53;;;;;;;8.44;99.83;100819.06;5014761;28;20918;-56
2023/02/02 04:00:37;;;;;;;5.30;1.03;;;;;;;8.47;99.44;100819.91;5013861;28;20946;-57
2023/02/02 04:03:04;;;;;;;0.30;0.20;;;;;;;8.54;99.91;100826.91;5014998;28;20476;-57
2023/02/02 04:05:31;;;;;;;0.40;0.30;;;;;;;8.63;99.59;100822.38;5014784;28;20579;-57
2023/02/02 04:07:57;;;;;;;0.80;0.30;;;;;;;8.56;99.39;100816.28;5014731;28;20463;-58
2023/02/02 04:10:24;;;;;;;0.90;0.90;;;;;;;8.69;98.53;100822.31;5008434;28;20454;-57
2023/02/02 04:12:50;;;;;;;3.50;1.47;;;;;;;8.66;98.13;100822.38;5000053;28;20484;-57
2023/02/02 04:15:17;;;;;;;0.30;0.20;;;;;;;8.59;99.09;100817.13;5014840;28;20449;-57
2023/02/02 04:17:43;;;;;;;0.60;0.57;;;;;;;8.59;98.57;100825.06;5014533;28;20452;-57
2023/02/02 04:20:10;;;;;;;1.17;1.07;;;;;;;8.57;97.86;100829.50;5014666;28;20847;-57
2023/02/02 04:22:37;;;;;;;0.80;0.80;;;;;;;8.56;97.76;100829.53;5014396;28;20475;-57
2023/02/02 04:25:03;;;;;;;0.40;0.33;;;;;;;8.60;97.37;100832.13;5014319;28;20507;-57
2023/02/02 04:27:32;;;;;;;0.77;0.40;;;;;;;8.72;97.28;100831.09;5014149;28;20530;-57
2023/02/02 04:29:59;;;;;;;11.53;0.40;;;;;;;8.64;96.92;100827.69;5014506;28;20950;-57
2023/02/02 04:32:26;;;;;;;2.00;1.13;;;;;;;8.72;97.18;100846.13;5014293;28;20472;-57
2023/02/02 04:34:52;;;;;;;0.73;0.70;;;;;;;8.71;96.31;100847.03;5014445;28;20445;-56
2023/02/02 04:37:19;;;;;;;0.57;0.57;;;;;;;8.67;96.27;100855.91;5014237;28;20515;-57
2023/02/02 04:39:45;;;;;;;0.77;0.77;;;;;;;8.69;96.55;100847.06;5014067;28;20453;-57
2023/02/02 04:42:11;;;;;;;0.87;0.87;;;;;;;8.67;95.94;100854.16;5010100;28;20473;-57
2023/02/02 04:44:38;;;;;;;10.07;0.77;;;;;;;8.68;96.22;100849.72;5005010;28;20495;-57
2023/02/02 04:47:05;;;;;;;0.63;0.60;;;;;;;8.64;96.61;100856.84;5014206;28;20440;-58
2023/02/02 04:49:31;;;;;;;4.80;0.70;;;;;;;8.74;96.37;100858.47;5002537;28;20468;-57
2023/02/02 04:51:58;;;;;;;3.90;0.57;;;;;;;8.79;96.51;100854.00;5012327;28;20553;-58
2023/02/02 04:54:24;;;;;;;11.90;1.50;;;;;;;8.76;96.60;100861.09;5002291;28;20461;-57
2023/02/02 04:56:51;;;;;;;5.03;1.07;;;;;;;8.68;96.35;100860.31;5012195;28;20456;-58
2023/02/02 04:59:17;;;;;;;0.60;0.20;;;;;;;8.67;96.77;100858.56;5013659;28;20448;-57
2023/02/02 05:01:43;;;;;;;0.80;0.80;;;;;;;8.78;96.75;100862.84;5013686;28;20460;-57
2023/02/02 05:04:10;;;;;;;1.00;0.63;;;;;;;8.77;96.57;100849.59;5013805;28;20923;-57
2023/02/02 05:06:37;;;;;;;0.60;0.50;;;;;;;8.83;96.62;100854.84;5013689;28;20535;-58
2023/02/02 05:09:03;;;;;;;2.67;0.33;;;;;;;8.81;97.05;100853.97;5008746;28;20457;-57
2023/02/02 05:11:30;;;;;;;1.90;0.40;;;;;;;8.75;97.04;100859.34;5007081;28;20544;-56
2023/02/02 05:13:56;;;;;;;0.40;0.30;;;;;;;8.55;97.45;100862.22;5005782;28;20462;-57
2023/02/02 05:16:23;;;;;;;1.80;1.20;;;;;;;8.59;97.93;100867.47;5013480;28;20571;-55
2023/02/02 05:18:55;;;;;;;1.03;0.97;;;;;;;8.68;97.67;100865.63;5013404;28;20483;-56
2023/02/02 05:21:22;;;;;;;2.03;0.50;;;;;;;8.70;97.83;100871.78;5013301;28;20869;-57
2023/02/02 05:23:49;;;;;;;0.40;0.40;;;;;;;8.64;97.80;100872.75;5013158;28;21021;-56
2023/02/02 05:26:20;;;;;;;25.57;0.83;;;;;;;8.68;97.43;100876.22;5013387;28;20460;-57
2023/02/02 05:28:47;;;;;;;1.27;0.93;;;;;;;8.58;97.80;100873.66;5013182;28;20826;-58
2023/02/02 05:31:15;;;;;;;1.57;0.70;;;;;;;8.67;97.62;100878.00;5013251;28;20449;-57
2023/02/02 05:33:41;;;;;;;0.60;0.47;;;;;;;8.61;97.35;100880.69;5013093;28;20523;-57
2023/02/02 05:36:08;;;;;;;0.30;0.20;;;;;;;8.63;97.79;100888.63;5012945;28;20457;-56
2023/02/02 05:38:35;;;;;;;0.57;0.30;;;;;;;8.56;98.25;100895.78;5012848;28;20456;-57
2023/02/02 05:41:02;;;;;;;7.73;0.50;;;;;;;8.61;98.31;100899.25;5013247;28;20619;-58
2023/02/02 05:43:30;;;;;;;0.53;0.40;;;;;;;8.67;97.24;100893.03;4999780;28;20508;-58
2023/02/02 05:45:57;;;;;;;2.20;1.07;;;;;;;8.60;98.31;100898.38;5013053;28;20933;-57
2023/02/02 05:48:25;;;;;;;7.83;0.77;;;;;;;8.58;98.34;100902.81;5010894;28;20825;-57
2023/02/02 05:51:15;;;;;;;0.40;0.40;;;;;;;8.78;97.81;100897.31;5002193;28;20460;-56
2023/02/02 05:53:43;;;;;;;0.33;0.30;;;;;;;8.61;98.11;100910.72;5006972;28;20482;-57
2023/02/02 05:56:11;;;;;;;0.30;0.20;;;;;;;8.72;98.19;100901.78;5006189;28;20459;-57
2023/02/02 05:58:37;;;;;;;2.93;0.50;;;;;;;8.64;98.37;100907.19;5012746;28;20460;-57
2023/02/02 06:01:04;;;;;;;3.37;0.30;;;;;;;8.74;97.99;100905.28;5012730;28;20853;-58
2023/02/02 06:03:31;;;;;;;0.57;0.30;;;;;;;8.54;98.43;100919.66;4992836;28;20512;-58
2023/02/02 06:05:57;;;;;;;0.30;0.30;;;;;;;8.58;98.27;100918.72;5006150;28;20530;-55
2023/02/02 06:08:24;;;;;;;0.53;0.20;;;;;;;8.67;98.05;100916.88;5012816;28;20485;-57
2023/02/02 06:10:50;;;;;;;0.30;0.20;;;;;;;8.65;99.07;100918.66;5006535;28;20539;-56
2023/02/02 06:13:17;;;;;;;0.70;0.50;;;;;;;8.56;98.75;100915.19;4999811;28;20491;-57
2023/02/02 06:15:43;;;;;;;1.17;0.70;;;;;;;8.49;99.37;100923.22;5012574;28;20448;-58
2023/02/02 06:18:10;;;;;;;0.30;0.20;;;;;;;8.53;99.76;100923.19;5013496;28;20463;-57
2023/02/02 06:20:37;;;;;;;1.90;0.90;;;;;;;8.63;98.86;100918.66;5013595;28;20448;-57
2023/02/02 06:23:04;;;;;;;4.10;0.80;;;;;;;8.57;99.68;100916.09;5012499;28;20997;-57
2023/02/02 06:25:33;;;;;;;4.57;1.23;;;;;;;8.57;99.22;100926.69;5012937;28;20494;-57
2023/02/02 06:28:00;;;;;;;0.70;0.30;;;;;;;8.61;98.74;100931.91;5012909;28;20455;-57
2023/02/02 06:30:27;;;;;;;0.30;0.20;;;;;;;8.63;98.53;100923.06;5012316;28;20539;-57
2023/02/02 06:32:53;;;;;;;12.03;0.50;;;;;;;8.66;98.84;100931.03;5012855;28;20492;-57
2023/02/02 06:35:20;;;;;;;0.20;0.20;;;;;;;8.67;98.10;100931.00;5012693;28;20547;-57
2023/02/02 06:37:47;;;;;;;1.77;0.30;;;;;;;8.81;97.97;100925.53;5012823;28;20468;-58
2023/02/02 06:40:14;;;;;;;1.27;0.73;;;;;;;8.71;97.40;100914.16;4999956;28;20473;-58
2023/02/02 06:42:40;;;;;;;0.40;0.40;;;;;;;8.86;97.12;100913.97;5004074;28;20477;-58
2023/02/02 06:45:08;;;;;;;1.17;0.30;;;;;;;8.77;96.73;100902.59;5007567;28;20901;-59
2023/02/02 06:47:34;;;;;;;5.30;0.70;;;;;;;8.65;96.89;100892.16;5012583;28;20461;-56
2023/02/02 06:50:01;;;;;;;0.30;0.23;;;;;;;8.67;97.10;100903.63;4999101;28;20922;-57
2023/02/02 06:52:27;;;;;;;2.63;1.17;;;;;;;8.70;96.61;100904.47;5012471;28;20849;-56
2023/02/02 06:54:54;;;;;;;0.90;0.60;;;;;;;8.74;96.04;100895.56;4999159;28;20488;-59
2023/02/02 06:57:20;;;;;;;0.40;0.30;;;;;;;8.67;96.03;100895.66;5012363;28;20464;-56
2023/02/02 06:59:47;;;;;;;4.43;0.40;;;;;;;8.77;95.84;100892.91;5012606;28;20463;-57
2023/02/02 07:02:13;;;;;;;0.60;0.50;;;;;;;8.83;95.42;100903.41;5012062;28;20564;-57
2023/02/02 07:04:40;;;;;;;0.40;0.30;;;;;;;8.82;95.32;100912.28;5012079;28;20507;-58
2023/02/02 07:07:06;;;;;;;2.13;0.70;;;;;;;8.90;95.12;100917.47;5012367;28;20453;-58
2023/02/02 07:09:34;;;;;;;4.60;0.50;;;;;;;8.80;95.08;100926.44;5006468;28;20460;-58
2023/02/02 07:12:00;;;;;;;0.80;0.60;;;;;;;8.78;94.73;100926.47;5002018;28;20481;-59
2023/02/02 07:14:27;;;;;;;11.33;1.30;;;;;;;8.87;94.57;100930.78;5008774;28;20476;-58
2023/02/02 07:16:53;;;;;;;0.67;0.67;;;;;;;8.81;94.79;100934.38;5012249;28;20451;-59
2023/02/02 07:19:20;;;;;;;0.70;0.70;;;;;;;8.86;94.44;100942.28;5011884;28;20464;-59
2023/02/02 07:21:46;;;;;;;0.40;0.30;;;;;;;8.78;93.99;100941.50;5010856;28;20448;-58
2023/02/02 07:24:13;;;;;;;0.70;0.40;;;;;;;8.89;94.43;100943.09;5011851;28;20455;-58
2023/02/02 07:26:39;;;;;;;1.33;0.70;;;;;;;8.83;93.96;100947.63;5011772;28;20536;-57
2023/02/02 07:29:06;;;;;;;3.00;0.83;;;;;;;8.86;93.53;100944.91;5011807;28;21037;-58
2023/02/02 07:31:33;;;;;;;0.70;0.30;;;;;;;8.89;94.17;100953.72;5012002;28;20460;-58
2023/02/02 07:34:02;;;;;;;0.40;0.23;;;;;;;8.90;94.16;100942.22;5011727;28;21072;-59
2023/02/02 07:36:28;;;;;;;3.80;0.50;;;;;;;8.85;94.28;100951.13;5013974;28;20539;-58
2023/02/02 07:38:58;;;;;;;4.37;2.00;;;;;;;8.92;93.42;100947.53;5011602;28;20456;-58
2023/02/02 07:41:25;;;;;;;0.60;0.40;;;;;;;9.02;93.74;100949.16;5006480;28;20456;-59
2023/02/02 07:43:51;;;;;;;0.83;0.83;;;;;;;8.81;94.13;100958.22;5001846;28;20989;-58
2023/02/02 07:46:19;;;;;;;0.40;0.27;;;;;;;8.88;93.70;100961.69;5014114;28;20542;-58
2023/02/02 07:48:46;;;;;;;2.13;0.40;;;;;;;8.86;93.62;100964.34;5010078;28;20457;-58
2023/02/02 07:51:15;;;;;;;0.30;0.20;;;;;;;8.97;93.31;100972.19;5007341;28;21034;-58
2023/02/02 07:53:53;;;;;;;2.20;0.87;;;;;;;8.96;93.11;100954.53;5009131;28;20484;-58
2023/02/02 07:56:22;;;;;;;7.27;1.13;;;;;;;8.92;92.89;100949.28;5009669;28;20879;-58
2023/02/02 07:58:51;;;;;;;0.40;0.30;;;;;;;8.96;93.32;100945.72;5015198;28;20445;-58
2023/02/02 08:01:19;;;;;;;0.90;0.50;;;;;;;9.08;92.97;100946.44;5015033;28;20494;-58
2023/02/02 08:03:46;;;;;;;0.73;0.27;;;;;;;9.00;92.59;100948.28;5014995;28;20472;-57
2023/02/02 08:06:16;;;;;;;6.73;1.80;;;;;;;9.06;92.09;100942.94;5014612;28;20505;-58
2023/02/02 08:08:43;;;;;;;34.30;1.50;;;;;;;9.09;92.04;100963.22;5013016;28;20457;-58
2023/02/02 08:11:11;;;;;;;0.50;0.50;;;;;;;9.18;91.56;100957.78;5008220;28;21020;-58
2023/02/02 08:13:38;;;;;;;10.27;1.03;;;;;;;9.02;92.27;100965.06;5058422;23;20527;-53
2023/02/02 08:16:06;;;;;;;7.37;0.67;;;;;;;9.09;92.04;100969.41;5074455;28;20528;-53
2023/02/02 08:18:33;;;;;;;8.73;1.27;;;;;;;9.12;91.72;100966.72;5074455;28;20883;-53
2023/02/02 08:21:01;;;;;;;4.83;0.50;;;;;;;9.20;91.65;100972.81;5074209;28;20448;-53
2023/02/02 08:23:28;;;;;;;1.60;0.60;;;;;;;9.28;91.93;100980.66;5074359;28;20481;-53
2023/02/02 08:26:04;;;;;;;18.43;0.87;;;;;;;9.28;91.11;100967.41;5074283;28;20926;-53
2023/02/02 08:28:31;;;;;;;11.20;0.90;;;;;;;9.29;91.04;100960.31;5074214;28;20930;-53
2023/02/02 08:31:03;;;;;;;0.53;0.50;;;;;;;9.34;90.90;100953.19;5074072;28;20454;-53
2023/02/02 08:33:29;;;;;;;1.90;0.93;;;;;;;9.32;91.06;100963.84;5074275;28;20469;-53
2023/02/02 08:35:56;;;;;;;0.50;0.50;;;;;;;9.42;90.77;100972.53;5074224;28;20837;-53
2023/02/02 08:38:23;;;;;;;1.40;0.30;;;;;;;9.31;90.21;100964.72;5074076;28;20450;-53
2023/02/02 08:40:50;;;;;;;0.43;0.40;;;;;;;9.33;90.59;100973.56;5053968;28;20466;-53
2023/02/02 08:43:16;;;;;;;2.83;1.03;;;;;;;9.33;90.05;100988.59;5053807;28;20467;-53
2023/02/02 08:45:43;;;;;;;12.50;0.40;;;;;;;9.28;90.48;100979.78;5053591;28;20486;-53
2023/02/02 08:48:29;;;;;;;8.53;0.97;;;;;;;9.47;89.33;100982.22;5066854;28;20869;-53
2023/02/02 08:50:57;;;;;;;2.70;0.83;;;;;;;9.53;89.36;100985.69;5063860;28;20480;-53
2023/02/02 08:53:25;;;;;;;0.93;0.93;;;;;;;9.47;89.03;100992.81;5070448;28;20473;-53
2023/02/02 08:56:09;;;;;;;9.30;0.87;;;;;;;9.50;89.42;100990.13;5073703;28;20446;-53
2023/02/02 08:58:36;;;;;;;20.87;1.10;;;;;;;9.50;89.52;100992.78;5073680;28;20449;-53
2023/02/02 09:01:10;;;;;;;7.17;0.93;;;;;;;9.40;89.22;100998.22;5073438;28;20446;-53
2023/02/02 09:03:39;;;;;;;0.60;0.43;;;;;;;9.47;88.78;100986.66;5073493;28;20520;-53
2023/02/02 09:06:07;;;;;;;11.10;0.80;;;;;;;9.43;89.05;100987.56;5073396;28;20489;-53
2023/02/02 09:08:34;;;;;;;1.87;1.00;;;;;;;9.46;89.15;100983.13;5072990;28;20470;-53
2023/02/02 09:11:09;;;;;;;0.40;0.40;;;;;;;9.41;88.71;100978.75;5066485;28;20451;-53
2023/02/02 09:13:37;;;;;;;3.33;0.70;;;;;;;9.54;88.39;100993.63;5073221;28;20480;-53
2023/02/02 09:16:07;;;;;;;1.60;1.50;;;;;;;9.42;88.44;100985.81;5073062;28;20445;-53
2023/02/02 09:18:33;;;;;;;3.17;0.97;;;;;;;9.49;88.25;100992.81;5073399;28;20446;-53
2023/02/02 09:21:03;;;;;;;5.13;0.93;;;;;;;9.41;88.80;100981.41;5073139;28;20587;-53
2023/02/02 09:23:31;;;;;;;7.60;1.37;;;;;;;9.42;88.98;100999.94;5073107;28;20472;-53
2023/02/02 09:26:12;;;;;;;8.60;0.70;;;;;;;9.60;88.16;100998.84;5073079;28;20486;-53
2023/02/02 09:28:40;;;;;;;1.07;0.60;;;;;;;9.73;87.92;101005.75;5072728;28;20538;-54
2023/02/02 09:31:07;;;;;;;0.50;0.50;;;;;;;9.64;87.76;101002.34;5072947;28;20612;-53
2023/02/02 09:33:35;;;;;;;14.53;0.57;;;;;;;9.67;87.63;101005.81;5072560;28;20468;-53
2023/02/02 09:36:07;;;;;;;5.33;0.80;;;;;;;9.74;87.61;101003.97;5073084;28;20442;-53
2023/02/02 09:38:34;;;;;;;0.53;0.43;;;;;;;9.78;87.86;101006.56;5070695;28;20474;-53
2023/02/02 09:41:24;;;;;;;2.80;1.10;;;;;;;9.70;87.87;101011.09;5058361;28;20512;-53
2023/02/02 09:44:12;;;;;;;0.40;0.40;;;;;;;9.76;87.18;101010.16;5071906;28;20466;-53
2023/02/02 09:47:05;;;;;;;0.30;0.20;;;;;;;9.83;87.16;101006.50;5072593;28;20577;-53
2023/02/02 09:49:56;;;;;;;0.33;0.27;;;;;;;9.71;87.09;101017.28;5061176;28;20936;-53
2023/02/02 09:52:29;;;;;;;0.50;0.20;;;;;;;9.69;86.68;101011.97;5060481;28;20990;-53
2023/02/02 09:55:03;;;;;;;0.40;0.40;;;;;;;9.66;86.92;101020.00;5069162;28;20464;-53
2023/02/02 09:57:39;;;;;;;0.40;0.30;;;;;;;9.69;87.19;101032.34;5072329;28;20448;-53
2023/02/02 10:00:28;;;;;;;0.40;0.37;;;;;;;9.57;87.86;101032.50;5072200;28;20438;-53
2023/02/02 10:03:01;;;;;;;12.10;2.00;;;;;;;9.52;87.56;101037.88;5072121;28;20549;-53
2023/02/02 10:05:39;;;;;;;20.93;0.63;;;;;;;9.57;88.29;101033.38;5072518;28;20577;-53
2023/02/02 10:08:10;;;;;;;0.50;0.30;;;;;;;9.66;89.26;101037.69;5072387;28;20831;-53
2023/02/02 10:10:42;;;;;;;2.53;0.57;;;;;;;9.68;89.80;101043.88;5065870;28;20446;-53
2023/02/02 10:13:15;;;;;;;0.67;0.40;;;;;;;9.71;90.57;101039.38;5071007;28;20892;-53
2023/02/02 10:15:49;;;;;;;0.73;0.73;;;;;;;9.78;91.13;101040.19;5072428;28;20438;-53
2023/02/02 10:18:33;;;;;;;0.40;0.40;;;;;;;9.89;91.32;101048.91;5072276;28;20452;-54
2023/02/02 10:21:03;;;;;;;0.80;0.80;;;;;;;9.93;91.20;101049.72;5072142;28;20460;-53
2023/02/02 10:23:34;;;;;;;2.83;2.10;;;;;;;9.96;90.26;101050.56;5072097;28;20470;-53
2023/02/02 10:26:12;;;;;;;0.30;0.20;;;;;;;10.12;89.53;101043.25;5071755;28;20477;-53
2023/02/02 10:29:17;;;;;;;5.67;0.50;;;;;;;10.21;88.79;101043.16;5072383;28;20449;-53
2023/02/02 10:32:21;;;;;;;0.30;0.20;;;;;;;10.09;87.59;101059.25;5072125;28;20462;-53
2023/02/02 10:35:05;;;;;;;9.47;0.60;;;;;;;10.16;87.82;101058.25;5072255;28;20448;-53
2023/02/02 10:37:58;;;;;;;0.40;0.30;;;;;;;10.13;88.07;101063.59;5071829;28;20944;-53
2023/02/02 10:40:43;;;;;;;2.20;1.00;;;;;;;10.08;86.71;101065.44;5058637;28;20953;-53
2023/02/02 10:43:47;;;;;;;0.37;0.23;;;;;;;10.06;86.31;101060.16;5064383;28;20468;-53
2023/02/02 10:46:38;;;;;;;0.30;0.20;;;;;;;10.28;87.68;101042.19;5071821;28;20492;-53
2023/02/02 10:49:16;;;;;;;0.50;0.50;;;;;;;10.37;86.68;101042.00;5059832;28;20496;-53
2023/02/02 10:52:12;;;;;;;0.50;0.50;;;;;;;10.50;86.55;101055.13;5071980;28;20496;-53
2023/02/02 10:54:57;;;;;;;5.63;0.50;;;;;;;10.59;86.32;101063.81;5066949;28;20453;-53
2023/02/02 10:58:03;;;;;;;3.60;0.60;;;;;;;10.86;85.56;101061.63;5071905;28;20442;-53
2023/02/02 11:00:49;;;;;;;0.40;0.20;;;;;;;10.96;84.05;101063.19;5071738;28;20442;-53
2023/02/02 11:03:18;;;;;;;6.30;0.67;;;;;;;11.17;83.45;101062.81;5071270;28;20962;-55
2023/02/02 11:08:34;;;;;;;0.67;0.30;;;;;;;11.23;84.05;101067.13;5058976;28;20442;-55
2023/02/02 11:11:23;;;;;;;0.67;0.60;;;;;;;10.99;84.11;101073.81;5067018;28;20447;-55
2023/02/02 11:14:08;;;;;;;1.90;1.57;;;;;;;11.02;84.07;101062.22;5074142;28;20568;-55
2023/02/02 11:16:35;;;;;;;0.40;0.30;;;;;;;10.88;83.88;101062.47;5075652;28;20446;-55
2023/02/02 11:19:15;;;;;;;0.30;0.20;;;;;;;11.10;83.83;101061.19;5075356;28;20474;-55
2023/02/02 11:21:47;;;;;;;2.00;0.60;;;;;;;11.10;84.23;101054.97;5075420;28;20458;-55
2023/02/02 11:24:20;;;;;;;1.23;0.63;;;;;;;11.07;83.92;101050.56;5075032;28;20902;-55
2023/02/02 11:26:57;;;;;;;0.40;0.27;;;;;;;11.14;84.37;101048.69;5075466;28;20493;-55
2023/02/02 11:29:36;;;;;;;0.87;0.87;;;;;;;11.32;84.10;101031.50;5075254;28;20528;-55
2023/02/02 11:32:26;;;;;;;0.40;0.37;;;;;;;11.56;82.80;101037.19;5074939;28;20445;-55
2023/02/02 11:35:05;;;;;;;1.90;0.40;;;;;;;11.64;81.89;101020.16;5075342;28;20442;-55
2023/02/02 11:37:36;;;;;;;1.50;0.80;;;;;;;11.71;83.02;101029.81;5074597;28;20806;-55
2023/02/02 11:40:22;;;;;;;4.43;0.40;;;;;;;11.76;82.17;101043.88;5061983;28;20932;-53
2023/02/02 11:42:50;;;;;;;0.40;0.30;;;;;;;11.46;82.10;101038.28;5064534;28;20808;-53
2023/02/02 11:45:23;;;;;;;0.40;0.20;;;;;;;11.58;82.68;101046.03;5074909;28;20449;-55
2023/02/02 11:47:50;;;;;;;2.30;0.50;;;;;;;11.80;82.25;101040.31;5075176;28;20491;-53
2023/02/02 11:50:25;;;;;;;0.40;0.30;;;;;;;11.73;81.81;101039.50;5061629;28;20499;-53
2023/02/02 11:52:52;;;;;;;9.43;0.40;;;;;;;11.75;81.91;101037.69;5072305;28;20465;-53
2023/02/02 11:55:27;;;;;;;0.87;0.50;;;;;;;11.61;82.46;101042.41;5073460;28;20476;-53
2023/02/02 11:58:17;;;;;;;2.73;0.40;;;;;;;11.65;81.92;101036.16;5074864;28;20512;-53
2023/02/02 12:00:49;;;;;;;0.47;0.30;;;;;;;11.82;82.35;101047.34;5074663;28;20449;-53